Darwen, United Kingdom

12:58 AM GMT on January 31, 2015 (GMT +0000)
Darwen | Change Station
CLOSE
Current Station
Personal Weather Station
Location: Darwen, ENGLAND
Elevation: 550 ft
Nearby Weather Stations

Elev 550 ft 53.71 °N, 2.49 °W | Updated 13 minutes ago

Scattered Clouds
Scattered Clouds
37.4 °F
Feels Like 32 °F
N
7.0
Wind Variable Wind from WNW
Gusts 10.0 mph

Today
High -- | Low -- °F
--% Chance of Precip.
Yesterday
High -- | Low -- °F
Precip. -- in
7:58 AM 4:49 PM
Waxing Gibbous, 86% visible
Pressure 28.88 in
Visibility 6.2 miles
Clouds Few 1100 ft
Scattered Clouds 1800 ft
Windchill 32 °F
Dew Point 35 °F
Humidity 92%
Rainfall 0.00 in
Snow Depth Not available.
UV 0 out of 12
Pollen Not available.
Air Quality Not available.
Flu Activity Not available.
METAR EGCC 310050Z 25005KT 9999 FEW011 SCT018 01/01 Q0978 NOSIG

More Conditions Fewer Conditions

Pressure 28.88 in
Visibility 6.2 miles
Clouds Few 1100 ft
Scattered Clouds 1800 ft
Windchill 32 °F
Dew Point 35 °F
Humidity 92%
Rainfall 0.00 in
Snow Depth Not available.
UV 0 out of 12
Pollen Not available.
Air Quality Not available.
Flu Activity Not available.
METAR EGCC 310050Z 25005KT 9999 FEW011 SCT018 01/01 Q0978 NOSIG

More Conditions Fewer Conditions

10-Day Weather Forecast

Almanac

Astronomy

Jan. 31, 2015 Rise Set
Actual Time
Civil Twilight
Nautical Twilight
Astronomical Twilight
Moon
Length of Visible Light
Length of Day
Tomorrow will be .
, % of the Moon is Illuminated

Today's Extremes

Country Highs Country Lows

Community

WunderPhotos

Upload Photos

1,791,942 photos uploaded!

WunderBlogs® & News

Nearby

Air Quality

  Air Quality AQ Index Pollutant
Not available.

Snow Depth

Station Depth Elevation

Earthquake Activity

City Distance Mag. Time & Date
Minimum magnitude displayed is 2.5.

Coastal Water Temperatures

Place Temperature

Nearby Weather Stations